This is the latest recevied weather packets stored in our database for station/object OK1FCB-1. If no packets are shown the sender has not sent any weather packets the latest 10 day(s).
| Time | Temp. | Humidity | Pressure | Rain* | Wind** | Luminosity | Snow |
|---|---|---|---|---|---|---|---|
| 1788078966 | 26.11° C | 52% | 1020.5 hPa | - | - | - | - |
| 1788077166 | 23.33° C | 56% | 1020.7 hPa | - | - | - | - |
| 1788076271 | 24.44° C | 52% | 1020.4 hPa | - | - | - | - |
| 1788071780 | 22.22° C | 64% | 1020.4 hPa | - | - | - | - |
| 1788070880 | 21.11° C | 67% | 1020.3 hPa | - | - | - | - |
| 1788069979 | 18.33° C | 71% | 1020.3 hPa | - | - | - | - |
| 1788068181 | 15.56° C | 76% | 1020.2 hPa | - | - | - | - |
| 1788063689 | 11.67° C | 84% | 1020.2 hPa | - | - | - | - |
| 1788060996 | 12.22° C | 83% | 1020.4 hPa | - | - | - | - |
| 1788039452 | 13.33° C | 79% | 1020.4 hPa | - | - | - | - |
| 1788036759 | 13.33° C | 77% | 1020.3 hPa | - | - | - | - |
| 1788025991 | 19.44° C | 57% | 1019.9 hPa | - | - | - | - |
| 1788021519 | 28.33° C | 40% | 1019.9 hPa | - | - | - | - |
| 1788019725 | 29.44° C | 39% | 1020 hPa | - | - | - | - |
| 1788016138 | 31.11° C | 39% | 1020.1 hPa | - | - | - | - |
| 1788012544 | 28.89° C | 40% | 1020.2 hPa | - | - | - | - |
| 1788008957 | 28.89° C | 39% | 1020.1 hPa | - | - | - | - |
| 1788007164 | 28.89° C | 44% | 1020.3 hPa | - | - | - | - |
| 1788004464 | 26.67° C | 48% | 1020.5 hPa | - | - | - | - |
| 1787999078 | 26.67° C | 52% | 1020.5 hPa | - | - | - | - |
| 1787998177 | 25° C | 56% | 1020.6 hPa | - | - | - | - |
| 1787997282 | 25.56° C | 54% | 1020.6 hPa | - | - | - | - |
| 1787996385 | 26.67° C | 54% | 1020.7 hPa | - | - | - | - |
| 1787995484 | 25° C | 59% | 1020.6 hPa | - | - | - | - |
| 1787994583 | 22.78° C | 60% | 1020.7 hPa | - | - | - | - |
* Rain since midnight (hover to see other rain measurements)
** Current wind speed in m/s (hover to see current wind gust speed)